Time;durP1;ratioP1;P1;durP2;ratioP2;P2;SDS_P1;SDS_P2;PMS_P1;PMS_P2;Temp;Humidity;BMP_temperature;BMP_pressure;BME280_temperature;BME280_humidity;BME280_pressure;Samples;Min_cycle;Max_cycle;Signal;HPM_P1;HPM_P2
2022/09/30 00:01:23;;;;;;;7.57;2.42;;;;;;;16.08;85.82;97096.13;4439203;32;20066;-78
2022/09/30 00:03:51;;;;;;;5.57;2.47;;;;;;;16.38;85.99;97100.62;4439240;32;20072;-78
2022/09/30 00:06:19;;;;;;;7.75;3.05;;;;;;;16.55;84.37;97094.03;4439371;32;20059;-79
2022/09/30 00:08:46;;;;;;;9.20;3.60;;;;;;;16.89;83.00;97088.69;4439057;32;20074;-79
2022/09/30 00:11:17;;;;;;;9.25;3.25;;;;;;;17.20;81.75;97087.75;4439449;32;20099;-79
2022/09/30 00:13:45;;;;;;;8.20;3.67;;;;;;;17.23;81.73;97092.72;4439445;32;20054;-79
2022/09/30 00:16:14;;;;;;;8.70;3.67;;;;;;;16.70;84.05;97084.19;4438874;32;20140;-79
2022/09/30 00:18:42;;;;;;;9.45;4.05;;;;;;;16.83;83.79;97079.59;4439142;32;20070;-79
2022/09/30 00:21:11;;;;;;;10.75;4.75;;;;;;;16.61;83.96;97077.94;4439188;32;20085;-79
2022/09/30 00:23:38;;;;;;;10.73;4.40;;;;;;;16.91;82.81;97077.19;4439024;32;20073;-79
2022/09/30 00:26:12;;;;;;;9.57;4.57;;;;;;;16.86;83.35;97068.09;4439034;32;20066;-79
2022/09/30 00:28:40;;;;;;;11.10;5.18;;;;;;;16.37;85.33;97072.09;4439153;32;20073;-79
2022/09/30 00:31:11;;;;;;;13.13;6.57;;;;;;;15.90;87.42;97077.59;4454698;32;20070;-80
2022/09/30 00:33:38;;;;;;;12.60;5.85;;;;;;;16.22;87.17;97068.16;4454542;32;20078;-79
2022/09/30 00:36:07;;;;;;;12.80;5.90;;;;;;;16.17;86.30;97071.16;4454018;32;20062;-79
2022/09/30 00:38:34;;;;;;;14.30;6.80;;;;;;;16.78;84.44;97079.97;4454481;32;20073;-79
2022/09/30 00:41:02;;;;;;;16.95;7.57;;;;;;;17.02;82.46;97082.34;4454371;32;20081;-79
2022/09/30 00:43:52;;;;;;;17.33;8.02;;;;;;;16.84;83.07;97078.66;4454196;32;20058;-78
2022/09/30 00:46:36;;;;;;;16.40;7.32;;;;;;;16.28;85.94;97084.13;4454360;32;20080;-79
2022/09/30 00:49:20;;;;;;;15.73;7.93;;;;;;;16.96;82.45;97080.22;4442003;32;20116;-79
2022/09/30 00:51:51;;;;;;;17.23;8.00;;;;;;;16.82;83.80;97071.94;4454092;32;20070;-79
2022/09/30 00:54:23;;;;;;;16.40;7.97;;;;;;;16.64;84.32;97077.66;4454172;32;20077;-79
2022/09/30 00:56:52;;;;;;;18.17;8.13;;;;;;;16.36;84.91;97075.66;4453766;32;20062;-79
2022/09/30 00:59:24;;;;;;;15.20;6.43;;;;;;;17.28;81.32;97081.91;4454051;32;20069;-79
2022/09/30 01:01:50;;;;;;;13.98;6.57;;;;;;;17.42;80.81;97076.31;4455735;32;20073;-80
2022/09/30 01:04:21;;;;;;;11.93;5.00;;;;;;;16.85;82.79;97082.91;4456036;32;20106;-79
2022/09/30 01:06:48;;;;;;;13.73;5.50;;;;;;;17.41;79.98;97090.31;4443396;32;20074;-80
2022/09/30 01:09:17;;;;;;;14.48;5.97;;;;;;;16.83;81.68;97089.19;4443042;32;20070;-80
2022/09/30 01:11:44;;;;;;;13.43;5.53;;;;;;;17.29;80.45;97086.16;4452937;32;20057;-80
2022/09/30 01:14:16;;;;;;;11.80;5.20;;;;;;;16.73;82.81;97071.72;4453256;32;20080;-80
2022/09/30 01:17:09;;;;;;;11.10;5.22;;;;;;;15.99;85.66;97073.44;4454667;32;20099;-80
2022/09/30 01:19:57;;;;;;;11.70;4.93;;;;;;;16.87;81.87;97065.34;4442131;32;20065;-80
2022/09/30 01:22:52;;;;;;;11.43;5.15;;;;;;;16.74;81.95;97067.34;4455255;32;20080;-80
2022/09/30 01:25:56;;;;;;;10.85;4.90;;;;;;;16.81;82.04;97075.47;4454311;32;20062;-80
2022/09/30 01:28:51;;;;;;;10.60;4.65;;;;;;;16.75;82.95;97074.19;4453935;32;20066;-80
2022/09/30 01:31:42;;;;;;;12.45;5.30;;;;;;;15.16;90.36;97057.44;4454707;32;20080;-80
2022/09/30 01:34:20;;;;;;;12.95;5.65;;;;;;;16.02;88.09;97059.34;4441130;32;20099;-79
2022/09/30 01:36:53;;;;;;;13.07;5.65;;;;;;;16.59;84.85;97065.97;4453337;32;20069;-79
2022/09/30 01:39:31;;;;;;;12.30;5.90;;;;;;;16.78;83.06;97050.50;4450548;32;20081;-79
2022/09/30 01:42:34;;;;;;;13.57;5.90;;;;;;;17.53;80.09;97065.78;4453303;32;20079;-80
2022/09/30 01:45:18;;;;;;;14.07;6.60;;;;;;;16.84;82.37;97068.22;4441284;32;20077;-80
2022/09/30 01:48:09;;;;;;;12.40;5.97;;;;;;;18.45;76.44;97078.59;4454301;32;20096;-79
2022/09/30 01:51:09;;;;;;;12.18;5.45;;;;;;;18.09;76.55;97075.72;4453517;32;20058;-79
2022/09/30 01:53:44;;;;;;;13.73;6.30;;;;;;;17.86;77.71;97071.66;4428240;32;20074;-79
2022/09/30 01:56:18;;;;;;;15.05;6.95;;;;;;;17.63;78.88;97078.88;4455547;32;20068;-79
2022/09/30 01:59:03;;;;;;;14.23;6.35;;;;;;;17.09;80.81;97072.19;4455618;32;20058;-79
2022/09/30 02:01:45;;;;;;;16.62;7.22;;;;;;;16.55;84.42;97072.38;4455313;32;20089;-79
2022/09/30 02:04:19;;;;;;;14.27;6.43;;;;;;;17.14;82.79;97069.22;4455685;32;20065;-79
2022/09/30 02:06:52;;;;;;;14.23;6.93;;;;;;;17.11;82.14;97061.63;4442483;32;20086;-79
2022/09/30 02:09:33;;;;;;;17.00;7.05;;;;;;;16.21;85.76;97056.91;4442603;32;20076;-79
2022/09/30 02:12:05;;;;;;;16.55;6.95;;;;;;;15.80;89.45;97055.84;4442447;32;20080;-79
2022/09/30 02:14:39;;;;;;;15.10;7.45;;;;;;;15.53;89.70;97055.41;4442375;32;20084;-79
2022/09/30 02:17:14;;;;;;;19.10;7.60;;;;;;;16.01;88.41;97050.72;4455804;32;20088;-80
2022/09/30 02:19:48;;;;;;;19.42;7.60;;;;;;;17.12;83.13;97063.28;4442999;32;20058;-80
2022/09/30 02:22:21;;;;;;;61.83;8.48;;;;;;;17.41;81.37;97055.59;4442312;32;20080;-79
2022/09/30 02:24:59;;;;;;;72.47;8.18;;;;;;;17.40;80.83;97048.72;4442505;32;20077;-80
2022/09/30 02:27:39;;;;;;;76.10;8.50;;;;;;;17.63;79.34;97058.81;4455708;32;20070;-80
2022/09/30 02:30:08;;;;;;;98.82;9.05;;;;;;;17.80;78.41;97065.22;4455094;32;20120;-79
2022/09/30 02:32:40;;;;;;;52.00;7.55;;;;;;;17.98;77.22;97059.34;4455643;32;20062;-80
2022/09/30 02:35:31;;;;;;;50.20;7.20;;;;;;;18.30;76.33;97069.56;4455408;32;20177;-79
2022/09/30 02:38:04;;;;;;;76.60;8.32;;;;;;;17.16;80.29;97064.69;4455595;32;20073;-80
2022/09/30 02:40:38;;;;;;;56.50;7.90;;;;;;;16.87;82.73;97054.13;4442972;32;20073;-80
2022/09/30 02:43:06;;;;;;;63.78;8.77;;;;;;;17.67;79.24;97058.56;4442545;32;20125;-79
2022/09/30 02:46:05;;;;;;;58.45;7.97;;;;;;;17.79;77.51;97060.97;4442658;32;20073;-80
2022/09/30 02:48:44;;;;;;;69.65;7.35;;;;;;;18.27;75.97;97065.41;4442589;32;20093;-80
2022/09/30 02:51:20;;;;;;;33.17;6.55;;;;;;;18.46;75.40;97056.75;4455229;32;20054;-80
2022/09/30 02:54:13;;;;;;;48.17;5.82;;;;;;;18.52;74.51;97058.00;4440349;32;20110;-80
2022/09/30 02:57:00;;;;;;;19.75;5.28;;;;;;;17.01;80.10;97045.94;4452845;32;20077;-80
2022/09/30 02:59:27;;;;;;;19.05;5.50;;;;;;;16.42;84.71;97055.16;4440357;32;20084;-80
2022/09/30 03:01:54;;;;;;;11.77;4.82;;;;;;;16.34;85.03;97046.31;4453508;32;20058;-80
2022/09/30 03:04:24;;;;;;;10.50;4.78;;;;;;;16.55;85.32;97041.97;4439826;32;20058;-80
2022/09/30 03:06:51;;;;;;;11.82;4.10;;;;;;;16.35;85.23;97050.59;4440881;32;20105;-80
2022/09/30 03:09:17;;;;;;;14.27;4.32;;;;;;;16.44;85.86;97057.63;4440488;32;20120;-80
2022/09/30 03:11:46;;;;;;;9.38;3.95;;;;;;;15.42;89.76;97050.19;4449838;32;20776;-80
2022/09/30 03:14:18;;;;;;;8.73;3.53;;;;;;;16.17;87.56;97052.94;4450892;32;20662;-80
2022/09/30 03:17:03;;;;;;;8.57;3.45;;;;;;;17.36;82.12;97050.78;4438667;32;20090;-80
2022/09/30 03:19:44;;;;;;;8.05;3.67;;;;;;;17.96;78.61;97049.03;4453220;32;20072;-80
2022/09/30 03:22:50;;;;;;;8.70;3.40;;;;;;;17.02;81.68;97045.03;4454209;32;20057;-80
2022/09/30 03:28:32;;;;;;;8.02;3.08;;;;;;;15.38;90.53;97049.63;4453657;32;20085;-79
2022/09/30 03:31:16;;;;;;;7.07;2.92;;;;;;;16.12;87.68;97047.25;4440766;32;20061;-79
2022/09/30 03:34:14;;;;;;;9.30;3.62;;;;;;;16.18;86.41;97047.59;4453888;32;20057;-80
2022/09/30 03:36:54;;;;;;;8.57;3.40;;;;;;;16.53;86.21;97040.44;4454701;32;20053;-80
2022/09/30 03:39:25;;;;;;;10.25;4.60;;;;;;;16.10;87.59;97054.34;4442003;32;20136;-79
2022/09/30 03:41:56;;;;;;;10.55;4.07;;;;;;;17.30;81.78;97056.50;4442331;32;20069;-80
2022/09/30 03:45:02;;;;;;;11.43;4.25;;;;;;;16.96;83.34;97046.34;4455125;32;20755;-80
2022/09/30 03:47:32;;;;;;;11.25;4.47;;;;;;;17.91;79.09;97044.22;4387786;32;150241;-80
2022/09/30 03:50:03;;;;;;;10.15;4.25;;;;;;;17.76;78.73;97049.97;4455092;32;20061;-80
2022/09/30 03:52:31;;;;;;;10.05;4.55;;;;;;;17.51;79.64;97052.06;4454912;32;20073;-80
2022/09/30 03:55:04;;;;;;;11.07;4.40;;;;;;;17.68;79.49;97049.78;4454896;32;20057;-80
2022/09/30 03:57:31;;;;;;;10.55;4.50;;;;;;;18.52;75.72;97063.22;4454809;32;20084;-81
2022/09/30 03:59:58;;;;;;;10.48;4.85;;;;;;;18.50;76.02;97060.72;4454711;32;20077;-80
2022/09/30 04:02:26;;;;;;;11.27;4.97;;;;;;;18.73;74.82;97050.84;4454855;32;20072;-81
2022/09/30 04:05:01;;;;;;;12.82;5.80;;;;;;;18.41;76.20;97066.81;4454856;32;20066;-81
2022/09/30 04:07:28;;;;;;;13.32;5.78;;;;;;;18.12;77.60;97065.00;4454614;32;20085;-80
2022/09/30 04:09:55;;;;;;;14.30;6.50;;;;;;;17.80;79.20;97067.81;4454863;32;20066;-81
2022/09/30 04:12:22;;;;;;;18.25;9.98;;;;;;;18.34;76.73;97070.91;4454764;32;20077;-81
2022/09/30 04:14:56;;;;;;;18.80;9.20;;;;;;;19.66;71.04;97078.75;4454531;32;20061;-80
2022/09/30 04:17:23;;;;;;;18.25;9.75;;;;;;;18.89;74.70;97068.53;4454652;32;20062;-81
2022/09/30 04:19:50;;;;;;;23.73;9.93;;;;;;;18.76;74.51;97074.06;4454712;32;20088;-81
2022/09/30 04:22:17;;;;;;;17.87;9.00;;;;;;;18.85;75.15;97067.19;4454451;32;20069;-80
2022/09/30 04:24:52;;;;;;;22.25;10.80;;;;;;;18.12;78.43;97066.78;4453299;32;20087;-80
2022/09/30 04:27:19;;;;;;;21.92;9.10;;;;;;;18.50;76.89;97072.03;4453474;32;20058;-80
2022/09/30 04:29:45;;;;;;;16.83;8.60;;;;;;;18.73;75.75;97076.97;4454012;32;20081;-81
2022/09/30 04:32:12;;;;;;;25.75;9.43;;;;;;;18.17;78.23;97073.22;4453859;32;20076;-81
2022/09/30 04:34:48;;;;;;;25.30;8.90;;;;;;;18.41;77.93;97078.06;4453648;32;20080;-80
2022/09/30 04:37:15;;;;;;;27.65;9.07;;;;;;;19.35;73.19;97079.03;4454756;32;20054;-81
2022/09/30 04:39:43;;;;;;;32.40;9.43;;;;;;;18.40;77.81;97080.81;4442226;32;20070;-81
2022/09/30 04:42:10;;;;;;;21.20;8.73;;;;;;;18.21;77.99;97076.41;4454493;32;20072;-80
2022/09/30 04:44:37;;;;;;;20.08;8.68;;;;;;;18.60;77.78;97086.84;4453983;32;20066;-81
2022/09/30 04:47:05;;;;;;;15.77;7.45;;;;;;;17.29;82.15;97078.34;4453261;32;20685;-81
2022/09/30 04:49:32;;;;;;;16.58;7.43;;;;;;;18.74;77.09;97092.50;4454177;32;20114;-81
2022/09/30 04:51:59;;;;;;;16.33;7.25;;;;;;;18.08;79.82;97081.91;4454767;32;20115;-81
2022/09/30 04:54:26;;;;;;;12.48;5.90;;;;;;;17.76;81.24;97092.56;4440980;32;20066;-81
2022/09/30 04:56:53;;;;;;;11.15;5.10;;;;;;;18.53;78.23;97085.75;4454093;32;20094;-82
2022/09/30 04:59:19;;;;;;;12.90;7.18;;;;;;;18.44;78.18;97095.25;4448668;32;20065;-82
2022/09/30 05:01:46;;;;;;;14.43;7.30;;;;;;;16.67;86.41;97098.22;4453364;32;20061;-81
2022/09/30 05:04:15;;;;;;;17.65;7.10;;;;;;;17.17;85.17;97100.22;4442068;32;20085;-84
2022/09/30 05:06:41;;;;;;;12.77;6.18;;;;;;;17.17;85.18;97098.44;4427539;32;20090;-85
2022/09/30 05:09:08;;;;;;;16.35;6.70;;;;;;;17.61;82.86;97101.66;4441293;32;20090;-85
2022/09/30 05:11:41;;;;;;;9.65;4.35;;;;;;;17.63;82.78;97108.38;4441719;32;20356;-85
2022/09/30 05:14:08;;;;;;;11.98;6.05;;;;;;;17.13;85.23;97119.69;4441386;32;20436;-84
2022/09/30 05:16:35;;;;;;;11.65;5.25;;;;;;;17.72;82.07;97116.41;4441016;32;20065;-84
2022/09/30 05:19:02;;;;;;;12.95;5.70;;;;;;;17.75;82.41;97118.75;4441272;32;20105;-84
2022/09/30 05:21:29;;;;;;;12.23;5.53;;;;;;;17.86;81.60;97118.63;4441311;32;20111;-84
2022/09/30 05:23:57;;;;;;;10.02;4.90;;;;;;;17.81;81.40;97123.44;4426978;32;20142;-83
2022/09/30 05:26:24;;;;;;;8.57;3.97;;;;;;;17.85;81.74;97122.22;4441342;32;20104;-84
2022/09/30 05:28:51;;;;;;;8.43;3.83;;;;;;;17.86;81.66;97129.06;4441063;32;20156;-84
2022/09/30 05:31:19;;;;;;;9.18;2.92;;;;;;;18.00;80.72;97130.50;4440672;32;20442;-84
2022/09/30 05:33:46;;;;;;;6.43;2.58;;;;;;;18.33;79.26;97131.94;4441240;32;20085;-84
2022/09/30 05:36:14;;;;;;;8.48;3.37;;;;;;;17.81;81.50;97136.50;4441176;32;20099;-84
2022/09/30 05:38:41;;;;;;;8.30;3.33;;;;;;;17.34;83.69;97136.13;4426737;32;20353;-84
2022/09/30 05:41:11;;;;;;;9.13;3.62;;;;;;;17.23;85.10;97138.81;4441225;32;20155;-84
2022/09/30 05:43:44;;;;;;;8.45;3.30;;;;;;;16.89;86.95;97140.78;4441260;32;20073;-84
2022/09/30 05:46:11;;;;;;;7.28;2.87;;;;;;;17.57;83.67;97139.41;4427152;32;20153;-84
2022/09/30 05:48:38;;;;;;;8.02;3.00;;;;;;;16.74;88.08;97140.28;4439950;32;20424;-83
2022/09/30 05:51:06;;;;;;;7.32;2.75;;;;;;;16.87;87.30;97145.31;4441316;32;20428;-84
2022/09/30 05:53:37;;;;;;;8.23;3.53;;;;;;;17.71;83.66;97138.25;4441032;32;20150;-83
2022/09/30 05:56:05;;;;;;;8.15;3.20;;;;;;;17.93;82.35;97143.25;4441701;32;20082;-84
2022/09/30 05:58:32;;;;;;;7.68;3.17;;;;;;;16.77;87.66;97151.25;4437573;32;20123;-84
2022/09/30 06:01:06;;;;;;;8.98;3.70;;;;;;;17.30;85.27;97155.59;4439849;32;20112;-84
2022/09/30 06:03:39;;;;;;;9.05;3.75;;;;;;;17.68;84.56;97154.12;4440092;32;20145;-84
2022/09/30 06:06:06;;;;;;;9.60;3.90;;;;;;;17.68;84.52;97154.12;4440635;32;20109;-84
2022/09/30 06:08:33;;;;;;;10.07;4.03;;;;;;;17.21;86.63;97161.56;4439605;32;20101;-84
2022/09/30 06:11:00;;;;;;;9.65;4.10;;;;;;;17.95;82.77;97156.16;4440342;32;20111;-84
2022/09/30 06:13:28;;;;;;;8.57;3.58;;;;;;;18.67;79.81;97167.19;4439904;32;20085;-84
2022/09/30 06:15:57;;;;;;;11.02;4.03;;;;;;;17.59;83.48;97161.78;4441838;32;20073;-84
2022/09/30 06:18:25;;;;;;;8.60;3.70;;;;;;;18.07;81.72;97165.53;4441621;32;20108;-84
2022/09/30 06:21:00;;;;;;;7.60;3.22;;;;;;;18.78;77.34;97177.50;4443277;32;20089;-85
2022/09/30 06:23:28;;;;;;;9.25;4.00;;;;;;;19.16;76.94;97180.25;4429225;32;20111;-86
2022/09/30 06:25:55;;;;;;;8.90;3.28;;;;;;;18.68;79.91;97191.53;4427245;32;20115;-85
2022/09/30 06:28:23;;;;;;;12.50;4.78;;;;;;;19.06;77.05;97199.38;4441399;32;20152;-86
2022/09/30 06:30:50;;;;;;;11.65;4.37;;;;;;;19.66;74.34;97201.75;4440893;32;20494;-85
2022/09/30 06:33:17;;;;;;;13.85;5.47;;;;;;;19.31;74.98;97205.81;4443088;32;20100;-85
2022/09/30 06:35:46;;;;;;;16.50;6.65;;;;;;;18.49;79.61;97207.97;4444667;32;20077;-86
2022/09/30 06:38:16;;;;;;;14.13;6.35;;;;;;;19.73;73.89;97218.53;4443586;32;20166;-85
2022/09/30 06:40:48;;;;;;;14.70;6.37;;;;;;;20.65;70.39;97210.69;4429328;32;20105;-85
2022/09/30 06:43:17;;;;;;;12.75;5.45;;;;;;;20.71;70.89;97215.31;4441480;32;20089;-85
2022/09/30 06:45:50;;;;;;;12.98;5.43;;;;;;;21.62;66.31;97218.53;4439543;32;20094;-85
2022/09/30 06:48:18;;;;;;;11.77;5.40;;;;;;;21.29;67.14;97224.53;4426524;32;20106;-86
2022/09/30 06:51:01;;;;;;;11.55;5.20;;;;;;;20.75;69.41;97223.72;4446127;32;20109;-84
2022/09/30 06:53:28;;;;;;;9.55;4.25;;;;;;;21.13;67.79;97230.44;4445239;32;20440;-85
2022/09/30 06:55:56;;;;;;;13.18;5.12;;;;;;;19.89;73.38;97224.00;4443351;32;20081;-84
2022/09/30 06:58:23;;;;;;;12.85;5.25;;;;;;;20.95;69.44;97235.72;4439657;32;20094;-85
2022/09/30 07:01:04;;;;;;;16.02;7.15;;;;;;;20.66;70.02;97237.72;4425169;32;20117;-84
2022/09/30 07:03:33;;;;;;;11.55;4.85;;;;;;;21.69;65.64;97238.91;4432907;32;20116;-84
2022/09/30 07:06:03;;;;;;;9.23;3.92;;;;;;;20.99;68.40;97244.09;4435254;32;20085;-84
2022/09/30 07:08:31;;;;;;;7.12;2.83;;;;;;;21.56;66.17;97245.41;4417878;32;20097;-84
2022/09/30 07:11:00;;;;;;;2.53;1.42;;;;;;;21.57;66.77;97257.53;4441845;32;20150;-87
2022/09/30 07:13:27;;;;;;;3.83;1.75;;;;;;;20.93;68.33;97249.91;4429146;32;20789;-85
2022/09/30 07:15:55;;;;;;;3.47;1.70;;;;;;;20.27;71.26;97253.59;4440613;32;20086;-87
2022/09/30 07:18:23;;;;;;;3.45;1.87;;;;;;;20.35;71.10;97250.28;4441400;32;20090;-86
2022/09/30 07:20:51;;;;;;;3.80;1.73;;;;;;;20.22;71.84;97258.47;4442050;32;20553;-86
2022/09/30 07:23:19;;;;;;;3.22;1.65;;;;;;;20.13;71.52;97257.53;4440364;32;20110;-86
2022/09/30 07:25:55;;;;;;;5.10;2.03;;;;;;;20.40;71.73;97263.75;4443320;32;20090;-86
2022/09/30 07:28:30;;;;;;;5.35;2.03;;;;;;;20.02;72.64;97264.75;4445838;32;20097;-85
2022/09/30 07:31:03;;;;;;;5.85;2.45;;;;;;;20.52;71.28;97270.47;4444297;32;20080;-87
2022/09/30 07:33:50;;;;;;;4.72;2.20;;;;;;;19.84;74.09;97272.50;4443236;32;20104;-87
2022/09/30 07:36:22;;;;;;;5.05;2.33;;;;;;;19.40;77.06;97272.16;4448735;32;20069;-86
2022/09/30 07:38:54;;;;;;;4.40;2.05;;;;;;;19.70;76.40;97286.88;4435310;32;20161;-86
2022/09/30 07:41:26;;;;;;;3.95;1.80;;;;;;;18.94;79.01;97283.31;4445492;32;20058;-86
2022/09/30 07:43:55;;;;;;;4.62;2.12;;;;;;;18.98;79.07;97293.34;4446353;32;20061;-86
2022/09/30 07:46:30;;;;;;;5.07;1.95;;;;;;;18.60;81.86;97296.66;4449228;32;20065;-86
2022/09/30 07:49:00;;;;;;;8.02;2.00;;;;;;;18.67;81.66;97304.84;4448489;32;20377;-87
2022/09/30 07:51:30;;;;;;;4.00;1.52;;;;;;;18.39;82.87;97306.34;4433159;32;20127;-87
2022/09/30 07:54:03;;;;;;;3.78;1.40;;;;;;;18.97;80.09;97317.84;4447817;32;20074;-85
2022/09/30 07:56:29;;;;;;;2.97;1.60;;;;;;;18.59;81.81;97315.91;4441805;32;20085;-88
2022/09/30 07:59:17;;;;;;;2.97;1.53;;;;;;;18.90;81.14;97326.34;4438211;32;20090;-88
2022/09/30 08:01:44;;;;;;;2.10;1.30;;;;;;;18.66;81.95;97331.94;4439586;32;20089;-87
2022/09/30 08:04:11;;;;;;;2.00;1.02;;;;;;;18.88;81.54;97331.69;4439882;32;20084;-87
2022/09/30 08:06:42;;;;;;;1.40;0.93;;;;;;;18.56;82.40;97336.25;4439827;32;20081;-87
2022/09/30 08:09:09;;;;;;;0.85;0.70;;;;;;;18.96;80.93;97342.31;4437879;32;20085;-87
2022/09/30 08:11:37;;;;;;;3.85;1.27;;;;;;;18.73;81.94;97343.50;4440082;32;20089;-87
2022/09/30 08:14:04;;;;;;;0.75;0.40;;;;;;;18.87;79.65;97350.13;4441196;32;20086;-88
2022/09/30 08:16:31;;;;;;;0.95;0.60;;;;;;;18.93;79.28;97347.81;4441029;32;20481;-87
2022/09/30 08:19:00;;;;;;;0.68;0.40;;;;;;;19.11;79.88;97349.75;4439424;32;20154;-88
2022/09/30 08:21:28;;;;;;;0.77;0.45;;;;;;;19.66;77.53;97358.75;4441234;32;20440;-88
2022/09/30 08:23:55;;;;;;;0.40;0.40;;;;;;;19.72;77.11;97357.41;4441077;32;20131;-88
2022/09/30 08:26:22;;;;;;;0.43;0.43;;;;;;;20.20;75.47;97365.16;4426665;32;20081;-87
2022/09/30 08:28:49;;;;;;;0.35;0.32;;;;;;;20.60;71.88;97356.22;4439953;32;20140;-87
2022/09/30 08:31:21;;;;;;;1.65;0.40;;;;;;;20.33;73.31;97364.84;4440747;32;20211;-88
2022/09/30 08:33:49;;;;;;;0.65;0.60;;;;;;;20.20;74.15;97380.88;4440974;32;20368;-87
2022/09/30 08:36:21;;;;;;;0.90;0.70;;;;;;;19.77;75.49;97383.97;4441244;32;20431;-87
2022/09/30 08:38:49;;;;;;;3.42;1.05;;;;;;;20.20;74.69;97381.72;4440211;32;20462;-87
2022/09/30 08:41:36;;;;;;;1.30;0.98;;;;;;;20.07;74.35;97383.78;4440062;32;20368;-88
2022/09/30 08:44:39;;;;;;;1.23;0.90;;;;;;;20.37;73.44;97381.94;4427543;32;20164;-88
2022/09/30 08:47:19;;;;;;;2.33;1.20;;;;;;;20.42;73.10;97387.59;4440071;32;20113;-87
2022/09/30 08:50:15;;;;;;;2.70;1.00;;;;;;;20.64;73.52;97404.78;4440841;32;20101;-88
2022/09/30 08:52:45;;;;;;;1.87;1.10;;;;;;;20.64;71.42;97395.13;4414095;32;20109;-87
2022/09/30 08:55:22;;;;;;;1.87;1.27;;;;;;;20.55;72.03;97398.59;4440421;32;20111;-87
2022/09/30 08:57:50;;;;;;;3.53;1.48;;;;;;;20.38;72.87;97399.31;4425941;32;20082;-87
2022/09/30 09:00:18;;;;;;;3.78;1.35;;;;;;;20.50;72.63;97406.06;4437739;32;20118;-86
2022/09/30 09:02:49;;;;;;;0.88;0.75;;;;;;;19.87;76.16;97413.56;4431180;32;20102;-87
2022/09/30 09:05:27;;;;;;;2.35;1.10;;;;;;;19.54;76.75;97417.41;4423501;32;20093;-88
2022/09/30 09:08:02;;;;;;;2.53;1.10;;;;;;;18.94;78.43;97424.47;4439634;32;20077;-88
2022/09/30 09:10:38;;;;;;;7.60;1.50;;;;;;;18.62;79.87;97433.25;4426822;32;20166;-87
2022/09/30 09:13:35;;;;;;;1.30;1.05;;;;;;;19.00;79.53;97427.34;4440327;32;20104;-89
2022/09/30 09:16:21;;;;;;;2.53;1.30;;;;;;;19.07;79.01;97428.47;4440356;32;20115;-87
2022/09/30 09:19:11;;;;;;;1.23;1.00;;;;;;;19.15;78.71;97438.28;4440771;32;20103;-87
2022/09/30 09:22:00;;;;;;;2.40;1.05;;;;;;;19.12;78.84;97446.38;4442423;32;20138;-87
2022/09/30 09:24:33;;;;;;;2.67;1.30;;;;;;;19.29;77.54;97444.91;4429886;32;20445;-88
2022/09/30 09:27:29;;;;;;;7.82;2.90;;;;;;;19.51;76.89;97454.31;4427917;32;20156;-89
2022/09/30 09:30:06;;;;;;;12.30;4.95;;;;;;;19.24;78.37;97458.38;4432608;32;20109;-88
2022/09/30 09:32:34;;;;;;;9.60;4.10;;;;;;;19.18;78.11;97458.94;4426568;32;20129;-87
2022/09/30 09:35:13;;;;;;;12.77;6.12;;;;;;;18.88;78.96;97465.00;4441300;32;20113;-88
2022/09/30 09:41:12;;;;;;;18.98;8.68;;;;;;;18.63;81.29;97475.88;4441645;32;20073;-89
2022/09/30 09:44:02;;;;;;;14.87;7.62;;;;;;;18.57;80.42;97473.75;4440857;32;20498;-88
2022/09/30 09:46:38;;;;;;;13.30;6.78;;;;;;;18.75;79.18;97483.53;4441236;32;20070;-87
2022/09/30 09:49:19;;;;;;;13.23;6.45;;;;;;;19.10;78.05;97473.62;4441318;32;20199;-88
2022/09/30 09:52:12;;;;;;;13.32;5.80;;;;;;;19.50;76.95;97477.03;4441252;32;20077;-88
2022/09/30 09:54:42;;;;;;;14.20;6.75;;;;;;;19.89;74.62;97477.94;4426609;32;20093;-88
2022/09/30 09:57:15;;;;;;;11.93;5.80;;;;;;;19.78;73.91;97475.47;4439567;32;20196;-88
2022/09/30 10:03:04;;;;;;;10.48;4.62;;;;;;;19.32;74.50;97462.94;4440586;32;20119;-87
2022/09/30 10:05:38;;;;;;;10.25;4.70;;;;;;;19.32;74.26;97473.41;4439292;32;20154;-86
2022/09/30 10:08:15;;;;;;;10.50;4.43;;;;;;;20.50;70.53;97467.16;4426170;32;20132;-85
2022/09/30 10:10:47;;;;;;;9.33;4.10;;;;;;;21.16;67.27;97468.00;4429579;32;20157;-86
2022/09/30 10:13:22;;;;;;;16.05;4.87;;;;;;;21.05;66.38;97479.53;4427518;32;20131;-87
2022/09/30 10:15:54;;;;;;;5.95;2.60;;;;;;;20.74;68.73;97486.84;4425740;32;20373;-87
2022/09/30 10:18:34;;;;;;;7.20;3.03;;;;;;;20.39;70.17;97485.63;4439393;32;20164;-89
2022/09/30 10:21:07;;;;;;;7.07;3.03;;;;;;;20.54;70.36;97486.06;4427023;32;20440;-86
2022/09/30 10:23:39;;;;;;;6.30;2.37;;;;;;;21.29;66.59;97489.53;4426630;32;20086;-87
2022/09/30 10:26:18;;;;;;;5.22;2.25;;;;;;;20.42;68.88;97498.50;4439337;32;20508;-87
2022/09/30 10:28:50;;;;;;;5.55;2.20;;;;;;;20.89;67.06;97509.00;4444391;32;20079;-89
2022/09/30 10:31:22;;;;;;;3.45;1.62;;;;;;;20.86;67.20;97525.03;4441062;32;20086;-88
2022/09/30 10:34:00;;;;;;;5.85;2.00;;;;;;;20.46;67.70;97541.78;4439477;32;20401;-89
2022/09/30 10:36:34;;;;;;;5.57;2.03;;;;;;;20.24;70.34;97549.91;4443335;32;20077;-89
2022/09/30 10:39:19;;;;;;;4.97;2.03;;;;;;;19.66;71.51;97549.81;4428243;32;20455;-87
2022/09/30 10:41:46;;;;;;;3.55;1.70;;;;;;;19.15;73.05;97565.59;4445453;32;20093;-90
2022/09/30 10:44:19;;;;;;;6.10;1.70;;;;;;;19.46;73.33;97567.22;4444738;32;20777;-90
2022/09/30 10:46:47;;;;;;;3.87;1.80;;;;;;;19.34;73.60;97574.31;4428377;32;20116;-90
2022/09/30 10:49:30;;;;;;;3.80;1.42;;;;;;;19.59;71.83;97575.69;4430715;32;20117;-89
2022/09/30 10:51:58;;;;;;;3.50;1.60;;;;;;;19.65;71.58;97596.09;4426868;32;20089;-89
2022/09/30 10:54:52;;;;;;;6.07;1.65;;;;;;;19.89;69.84;97603.62;4441286;32;20132;-90
2022/09/30 10:57:27;;;;;;;6.45;2.55;;;;;;;20.25;68.80;97595.25;4421979;32;20089;-86
2022/09/30 11:00:00;;;;;;;5.75;2.40;;;;;;;20.44;66.68;97601.38;4442461;32;20069;-87
2022/09/30 11:02:42;;;;;;;5.32;2.20;;;;;;;20.30;67.23;97599.09;4427048;32;20088;-87
2022/09/30 11:05:18;;;;;;;5.40;1.87;;;;;;;20.51;66.02;97602.44;4441054;32;20114;-87
2022/09/30 11:08:02;;;;;;;4.75;2.12;;;;;;;19.93;69.05;97612.84;4425012;32;20152;-87
2022/09/30 11:10:32;;;;;;;7.28;2.92;;;;;;;20.02;68.13;97621.69;4440386;32;20119;-87
2022/09/30 11:13:25;;;;;;;7.53;3.15;;;;;;;19.65;69.34;97627.50;4440149;32;20103;-88
2022/09/30 11:16:08;;;;;;;7.10;2.83;;;;;;;19.70;68.61;97642.81;4439780;32;20112;-88
2022/09/30 11:19:00;;;;;;;9.15;4.30;;;;;;;19.69;70.05;97649.03;4439119;32;20109;-87
2022/09/30 11:21:55;;;;;;;9.50;3.10;;;;;;;19.56;70.01;97643.97;4439849;32;20145;-87
2022/09/30 11:24:37;;;;;;;9.18;3.37;;;;;;;19.60;69.04;97650.62;4439821;32;20459;-87
2022/09/30 11:27:07;;;;;;;8.82;3.17;;;;;;;19.67;69.66;97650.91;4425526;32;20151;-86
2022/09/30 11:29:50;;;;;;;9.15;3.30;;;;;;;19.33;69.86;97651.16;4439164;32;20105;-84
2022/09/30 11:32:32;;;;;;;9.45;4.20;;;;;;;19.27;71.38;97653.47;4440314;32;20451;-84
2022/09/30 11:35:14;;;;;;;10.65;4.18;;;;;;;19.09;72.30;97658.44;4440688;32;20112;-85
2022/09/30 11:38:06;;;;;;;10.40;4.20;;;;;;;19.22;72.18;97671.31;4424908;32;20142;-85
2022/09/30 11:40:39;;;;;;;9.30;3.80;;;;;;;19.01;74.16;97664.31;4439705;32;20097;-85
2022/09/30 11:43:35;;;;;;;11.15;4.60;;;;;;;19.18;72.49;97675.16;4439450;32;20155;-85
2022/09/30 11:46:39;;;;;;;10.95;4.60;;;;;;;19.44;71.65;97681.63;4439869;32;20104;-85
2022/09/30 11:49:21;;;;;;;13.23;5.75;;;;;;;19.58;71.86;97683.97;4437870;32;20150;-85
2022/09/30 11:52:13;;;;;;;15.85;7.07;;;;;;;19.13;72.60;97683.37;4439552;32;20102;-85
2022/09/30 11:55:04;;;;;;;14.05;6.78;;;;;;;18.70;74.03;97686.06;4439533;32;20127;-85
2022/09/30 11:57:36;;;;;;;16.02;7.18;;;;;;;19.15;72.32;97691.13;4438288;32;20085;-85
2022/09/30 12:00:13;;;;;;;12.65;6.25;;;;;;;18.90;74.27;97697.53;4439797;32;20133;-85
2022/09/30 12:02:47;;;;;;;13.40;6.28;;;;;;;18.65;75.52;97701.31;4426808;32;20109;-85
2022/09/30 12:05:20;;;;;;;15.07;6.80;;;;;;;18.77;74.02;97697.69;4438932;32;20461;-85
2022/09/30 12:08:12;;;;;;;14.15;6.82;;;;;;;19.00;73.79;97707.09;4439068;32;20123;-84
2022/09/30 12:10:47;;;;;;;17.33;7.22;;;;;;;19.30;71.88;97713.38;4438799;32;20111;-85
2022/09/30 12:13:40;;;;;;;14.02;6.82;;;;;;;19.48;71.85;97722.28;4440239;32;20101;-84